Time;durP1;ratioP1;P1;durP2;ratioP2;P2;SDS_P1;SDS_P2;PMS_P1;PMS_P2;Temp;Humidity;BMP_temperature;BMP_pressure;BME280_temperature;BME280_humidity;BME280_pressure;Samples;Min_cycle;Max_cycle;Signal;HPM_P1;HPM_P2
2023/10/08 00:01:21;;;;;;;6.45;4.18;;;14.70;1.00;;;;;;7379823;19;20015;-70
2023/10/08 00:03:57;;;;;;;6.95;4.03;;;14.70;1.00;;;;;;7376285;19;20482;-70
2023/10/08 00:06:28;;;;;;;8.18;3.70;;;14.60;1.00;;;;;;7377869;19;20009;-70
2023/10/08 00:08:59;;;;;;;7.53;4.30;;;14.70;1.00;;;;;;7377756;19;20014;-70
2023/10/08 00:11:31;;;;;;;6.20;3.78;;;14.70;1.00;;;;;;7379927;19;20089;-69
2023/10/08 00:14:08;;;;;;;6.72;3.85;;;14.70;1.00;;;;;;7378652;19;20007;-69
2023/10/08 00:16:40;;;;;;;5.97;3.78;;;14.60;1.00;;;;;;7377439;19;20014;-69
2023/10/08 00:19:13;;;;;;;10.05;4.38;;;14.60;1.00;;;;;;7378123;19;20010;-70
2023/10/08 00:21:45;;;;;;;7.82;3.70;;;14.60;1.00;;;;;;7379623;19;20035;-70
2023/10/08 00:24:15;;;;;;;6.32;4.03;;;14.60;1.00;;;;;;7377718;19;20017;-69
2023/10/08 00:26:46;;;;;;;7.63;4.05;;;14.60;1.00;;;;;;7377250;19;20015;-69
2023/10/08 00:29:21;;;;;;;8.05;3.78;;;14.60;1.00;;;;;;7377489;19;20014;-69
2023/10/08 00:31:52;;;;;;;6.45;4.10;;;14.60;1.00;;;;;;7376087;19;20011;-69
2023/10/08 00:34:22;;;;;;;8.00;3.70;;;14.50;1.00;;;;;;7376450;19;20149;-69
2023/10/08 00:36:53;;;;;;;10.90;3.97;;;14.60;1.00;;;;;;7374632;19;20157;-70
2023/10/08 00:39:26;;;;;;;7.72;4.13;;;14.60;1.00;;;;;;7375274;19;20340;-69
2023/10/08 00:41:58;;;;;;;8.25;4.47;;;14.60;1.00;;;;;;7376707;19;20014;-70
2023/10/08 00:44:37;;;;;;;8.75;3.78;;;14.60;1.00;;;;;;7376729;19;20665;-69
2023/10/08 00:47:11;;;;;;;8.50;4.03;;;14.60;1.00;;;;;;7375253;19;20094;-69
2023/10/08 00:49:54;;;;;;;7.53;3.70;;;14.70;1.00;;;;;;7377947;19;20017;-69
2023/10/08 00:52:41;;;;;;;7.90;4.28;;;14.60;1.00;;;;;;7374731;19;20376;-69
2023/10/08 00:55:20;;;;;;;6.18;3.72;;;14.60;1.00;;;;;;7375045;19;20014;-70
2023/10/08 00:57:53;;;;;;;8.30;3.75;;;14.60;1.00;;;;;;7378461;19;20010;-69
2023/10/08 01:00:33;;;;;;;6.57;3.72;;;14.60;1.00;;;;;;7371729;19;20019;-71
2023/10/08 01:03:10;;;;;;;5.93;3.83;;;14.50;1.00;;;;;;7378281;19;20688;-69
2023/10/08 01:05:47;;;;;;;11.00;4.07;;;14.50;1.00;;;;;;7376414;19;20082;-69
2023/10/08 01:08:22;;;;;;;7.13;4.25;;;14.40;1.00;;;;;;7377809;19;20031;-70
2023/10/08 01:11:00;;;;;;;6.07;3.83;;;14.40;1.00;;;;;;7374612;19;20002;-70
2023/10/08 01:13:42;;;;;;;7.80;4.15;;;14.40;1.00;;;;;;7374658;19;20020;-70
2023/10/08 01:16:15;;;;;;;7.63;4.35;;;14.30;1.00;;;;;;7374239;19;20063;-69
2023/10/08 01:18:49;;;;;;;6.25;4.00;;;14.20;1.00;;;;;;7378418;19;20085;-68
2023/10/08 01:21:33;;;;;;;10.10;3.90;;;14.20;1.00;;;;;;7375657;19;20101;-69
2023/10/08 01:24:08;;;;;;;10.35;4.38;;;14.10;1.00;;;;;;6864689;19;2005123;-69
2023/10/08 01:26:39;;;;;;;8.15;4.13;;;14.20;1.00;;;;;;7374024;19;20010;-69
2023/10/08 01:29:19;;;;;;;7.20;4.22;;;14.20;1.00;;;;;;7376055;19;20119;-71
2023/10/08 01:31:53;;;;;;;9.07;4.85;;;14.20;1.00;;;;;;7353115;19;20133;-70
2023/10/08 01:34:27;;;;;;;9.18;4.20;;;14.10;1.00;;;;;;7363831;19;20022;-71
2023/10/08 01:37:03;;;;;;;7.72;4.40;;;14.20;1.00;;;;;;7364460;19;20109;-71
2023/10/08 01:39:36;;;;;;;7.80;4.18;;;14.10;1.00;;;;;;7364961;19;20470;-71
2023/10/08 01:42:15;;;;;;;8.07;4.57;;;14.10;1.00;;;;;;7365896;19;20031;-70
2023/10/08 01:44:48;;;;;;;10.13;4.82;;;14.10;1.00;;;;;;7364322;19;20027;-70
2023/10/08 01:47:20;;;;;;;8.95;4.63;;;14.00;1.00;;;;;;7365456;19;20021;-71
2023/10/08 01:49:57;;;;;;;6.90;4.72;;;14.00;1.00;;;;;;7367657;19;20018;-71
2023/10/08 01:52:29;;;;;;;11.13;4.57;;;14.00;1.00;;;;;;7361957;19;20026;-71
2023/10/08 01:55:02;;;;;;;7.68;4.18;;;13.90;1.00;;;;;;7363949;19;20090;-71
2023/10/08 01:57:34;;;;;;;8.43;4.82;;;13.90;1.00;;;;;;7362413;19;20101;-72
2023/10/08 02:00:09;;;;;;;7.38;4.38;;;13.90;1.00;;;;;;7361832;19;20469;-71
2023/10/08 02:02:40;;;;;;;7.95;4.40;;;13.90;1.00;;;;;;7364899;19;20014;-71
2023/10/08 02:05:14;;;;;;;9.88;4.88;;;13.80;1.00;;;;;;7365007;19;20127;-71
2023/10/08 02:07:45;;;;;;;7.03;3.75;;;13.80;1.00;;;;;;7362097;19;20053;-71
2023/10/08 02:10:19;;;;;;;5.82;3.95;;;13.80;1.00;;;;;;7368411;19;20011;-71
2023/10/08 02:12:50;;;;;;;7.65;4.05;;;13.90;1.00;;;;;;7367820;19;20022;-72
2023/10/08 02:15:21;;;;;;;7.60;4.15;;;13.80;1.00;;;;;;7360518;19;20506;-70
2023/10/08 02:17:52;;;;;;;9.40;4.65;;;13.90;1.00;;;;;;7363073;19;20018;-72
2023/10/08 02:20:23;;;;;;;7.47;4.00;;;13.80;1.00;;;;;;7359642;19;20036;-72
2023/10/08 02:22:53;;;;;;;7.25;4.03;;;13.80;1.00;;;;;;7363136;19;20037;-70
2023/10/08 02:25:27;;;;;;;8.00;4.07;;;13.70;1.00;;;;;;7360330;19;20469;-71
2023/10/08 02:27:58;;;;;;;8.95;4.07;;;13.60;1.00;;;;;;7359355;19;20021;-72
2023/10/08 02:30:29;;;;;;;8.85;3.97;;;13.50;1.00;;;;;;7362049;19;20015;-71
2023/10/08 02:33:00;;;;;;;6.57;3.85;;;13.60;1.00;;;;;;7362483;19;20014;-71
2023/10/08 02:35:31;;;;;;;10.00;3.90;;;13.60;1.00;;;;;;7358409;19;20011;-70
2023/10/08 02:38:01;;;;;;;6.93;3.90;;;13.50;1.00;;;;;;7371068;19;20007;-70
2023/10/08 02:40:36;;;;;;;6.93;4.05;;;13.40;1.00;;;;;;7373617;19;20010;-70
2023/10/08 02:43:08;;;;;;;7.80;3.95;;;13.40;1.00;;;;;;7373231;19;20094;-68
2023/10/08 02:45:40;;;;;;;6.88;3.90;;;13.30;1.00;;;;;;7372494;19;20056;-69
2023/10/08 02:48:12;;;;;;;7.40;3.78;;;13.30;1.00;;;;;;7374014;19;20483;-69
2023/10/08 02:50:44;;;;;;;8.93;3.92;;;13.30;1.00;;;;;;7373857;19;21110;-70
2023/10/08 02:53:20;;;;;;;8.82;4.05;;;13.30;1.00;;;;;;7372192;19;20478;-70
2023/10/08 02:55:53;;;;;;;8.70;4.65;;;13.40;1.00;;;;;;7367928;19;20010;-70
2023/10/08 02:58:25;;;;;;;10.18;4.50;;;13.40;1.00;;;;;;7372521;19;20041;-70
2023/10/08 03:00:55;;;;;;;6.57;4.38;;;13.40;1.00;;;;;;7374999;19;20014;-70
2023/10/08 03:03:28;;;;;;;6.97;3.97;;;13.30;1.00;;;;;;7373497;19;20348;-70
2023/10/08 03:05:59;;;;;;;6.75;3.95;;;13.30;1.00;;;;;;7372334;19;20024;-69
2023/10/08 03:08:31;;;;;;;6.90;4.25;;;13.30;1.00;;;;;;7372486;19;20097;-70
2023/10/08 03:11:06;;;;;;;8.02;4.15;;;13.30;1.00;;;;;;7380949;19;20010;-70
2023/10/08 03:13:38;;;;;;;6.72;4.20;;;13.30;1.00;;;;;;7382501;19;20019;-70
2023/10/08 03:16:13;;;;;;;9.63;4.38;;;13.40;1.00;;;;;;7379431;19;20043;-70
2023/10/08 03:18:49;;;;;;;;;;;13.40;1.00;;;;;;7383071;19;20045;-70
2023/10/08 03:21:43;;;;;;;7.55;4.20;;;13.30;1.00;;;;;;7381786;19;19925;-70
2023/10/08 03:24:29;;;;;;;8.07;4.05;;;13.30;1.00;;;;;;6868519;19;2004408;-69
2023/10/08 03:27:12;;;;;;;8.45;4.72;;;13.40;1.00;;;;;;7376505;19;20014;-69
2023/10/08 03:29:45;;;;;;;8.68;4.32;;;13.30;1.00;;;;;;7380622;19;20225;-69
2023/10/08 03:32:16;;;;;;;7.45;4.30;;;13.30;1.00;;;;;;7378977;19;20020;-70
2023/10/08 03:34:47;;;;;;;9.18;4.55;;;13.20;1.00;;;;;;7378247;19;20022;-70
2023/10/08 03:37:29;;;;;;;7.50;4.05;;;13.20;1.00;;;;;;7378917;19;20014;-69
2023/10/08 03:40:22;;;;;;;10.00;4.57;;;13.10;1.00;;;;;;7378004;19;20017;-69
2023/10/08 03:42:58;;;;;;;8.65;4.25;;;13.10;1.00;;;;;;7376381;19;20007;-69
2023/10/08 03:48:11;;;;;;;9.13;4.57;;;12.90;1.00;;;;;;7378919;19;20112;-69
2023/10/08 03:50:43;;;;;;;10.18;4.65;;;12.80;1.00;;;;;;7378579;19;20015;-69
2023/10/08 03:53:13;;;;;;;7.68;4.30;;;12.70;1.00;;;;;;7378102;19;20443;-69
2023/10/08 03:55:43;;;;;;;6.80;4.20;;;12.60;1.00;;;;;;7376095;19;20807;-69
2023/10/08 03:58:27;;;;;;;8.45;4.78;;;12.50;1.00;;;;;;7378061;19;20010;-69
2023/10/08 04:01:08;;;;;;;7.45;4.45;;;12.50;1.00;;;;;;7373937;19;20015;-69
2023/10/08 04:03:57;;;;;;;8.90;4.20;;;12.50;1.00;;;;;;7378579;19;20015;-69
2023/10/08 04:06:37;;;;;;;8.45;4.60;;;12.40;1.00;;;;;;7369850;19;20006;-69
2023/10/08 04:09:16;;;;;;;6.57;4.05;;;12.50;1.00;;;;;;7378084;19;20022;-69
2023/10/08 04:11:55;;;;;;;7.72;4.82;;;12.40;1.00;;;;;;7377539;19;20007;-69
2023/10/08 04:14:31;;;;;;;9.90;5.22;;;12.50;1.00;;;;;;7376790;19;20018;-68
2023/10/08 04:17:01;;;;;;;8.25;4.93;;;12.50;1.00;;;;;;7375150;19;20026;-69
2023/10/08 04:19:32;;;;;;;6.78;4.40;;;12.50;1.00;;;;;;7377220;19;20039;-69
2023/10/08 04:22:03;;;;;;;10.20;4.35;;;12.60;1.00;;;;;;7376468;19;20015;-70
2023/10/08 04:24:34;;;;;;;6.63;4.13;;;12.60;1.00;;;;;;7377559;19;20038;-69
2023/10/08 04:27:09;;;;;;;10.15;4.70;;;12.70;1.00;;;;;;7376412;19;20022;-69
2023/10/08 04:29:42;;;;;;;8.40;4.47;;;12.70;1.00;;;;;;7376302;19;20498;-69
2023/10/08 04:32:22;;;;;;;7.13;4.43;;;12.70;1.00;;;;;;7376951;19;20014;-70
2023/10/08 04:34:56;;;;;;;9.05;4.22;;;12.80;1.00;;;;;;7377816;19;20006;-69
2023/10/08 04:37:32;;;;;;;6.90;4.43;;;12.80;1.00;;;;;;7373774;19;20463;-70
2023/10/08 04:40:02;;;;;;;8.00;4.38;;;12.70;1.00;;;;;;7376928;19;20014;-69
2023/10/08 04:42:32;;;;;;;8.88;4.60;;;12.80;1.00;;;;;;7376955;19;20019;-70
2023/10/08 04:45:05;;;;;;;7.03;4.30;;;12.80;1.00;;;;;;7375607;19;20545;-68
2023/10/08 04:47:35;;;;;;;6.18;3.90;;;12.70;1.00;;;;;;7375572;19;20107;-70
2023/10/08 04:50:14;;;;;;;7.78;4.15;;;12.60;1.00;;;;;;7375826;19;20063;-67
2023/10/08 04:52:58;;;;;;;9.82;4.53;;;12.60;1.00;;;;;;7376074;19;20010;-68
2023/10/08 04:55:30;;;;;;;13.43;4.80;;;12.60;1.00;;;;;;7372225;19;20387;-68
2023/10/08 04:58:04;;;;;;;10.18;5.03;;;12.60;1.00;;;;;;7376472;19;20014;-68
2023/10/08 05:00:53;;;;;;;9.50;5.25;;;12.70;1.00;;;;;;7376169;19;20006;-68
2023/10/08 05:03:31;;;;;;;8.05;4.22;;;12.80;1.00;;;;;;7373898;19;20617;-69
2023/10/08 05:06:16;;;;;;;10.10;4.97;;;12.80;1.00;;;;;;7374807;19;20093;-68
2023/10/08 05:08:58;;;;;;;9.23;4.30;;;12.80;1.00;;;;;;7376581;19;20017;-69
2023/10/08 05:11:45;;;;;;;7.68;4.50;;;12.80;1.00;;;;;;7374022;19;20002;-70
2023/10/08 05:14:28;;;;;;;8.00;4.28;;;12.70;1.00;;;;;;7375856;19;20471;-70
2023/10/08 05:17:03;;;;;;;9.30;4.55;;;12.70;1.00;;;;;;7372394;19;20077;-70
2023/10/08 05:25:24;;;;;;;8.93;4.65;;;12.60;1.00;;;;;;7371952;19;20006;-69
2023/10/08 05:28:09;;;;;;;7.47;4.15;;;12.50;1.00;;;;;;7373335;19;20010;-69
2023/10/08 05:30:41;;;;;;;9.05;4.88;;;12.50;1.00;;;;;;7375266;19;20011;-69
2023/10/08 05:33:24;;;;;;;9.00;4.10;;;12.40;1.00;;;;;;7373656;19;20737;-69
2023/10/08 05:35:56;;;;;;;8.15;4.65;;;12.40;1.00;;;;;;7371619;19;20503;-69
2023/10/08 05:39:00;;;;;;;7.07;4.20;;;12.40;1.00;;;;;;7374885;19;20347;-70
2023/10/08 05:41:28;;;;;;;9.43;4.63;;;12.40;1.00;;;;;;7373674;19;20031;-69
2023/10/08 05:44:14;;;;;;;8.60;4.22;;;12.40;1.00;;;;;;7375081;19;20007;-70
2023/10/08 05:47:06;;;;;;;8.40;4.15;;;12.50;1.00;;;;;;7374269;19;20013;-69
2023/10/08 05:49:43;;;;;;;10.50;4.70;;;12.40;1.00;;;;;;6864026;19;2004794;-70
2023/10/08 05:52:27;;;;;;;9.95;4.88;;;12.60;1.00;;;;;;7374351;19;20006;-69
2023/10/08 05:57:46;;;;;;;9.65;4.88;;;12.60;1.00;;;;;;7374952;19;20015;-69
2023/10/08 06:00:30;;;;;;;7.72;4.60;;;12.60;1.00;;;;;;7373938;19;20009;-69
2023/10/08 06:03:09;;;;;;;8.15;4.68;;;12.60;1.00;;;;;;7372523;19;20164;-69
2023/10/08 06:06:07;;;;;;;9.43;4.90;;;12.70;1.00;;;;;;7372336;19;20722;-70
2023/10/08 06:08:48;;;;;;;9.90;4.68;;;12.70;1.00;;;;;;6866690;19;2004027;-68
2023/10/08 06:11:30;;;;;;;9.88;4.82;;;12.70;1.00;;;;;;7397232;19;20039;-69
2023/10/08 06:14:01;;;;;;;8.63;4.97;;;12.80;1.00;;;;;;7373506;19;20368;-69
2023/10/08 06:16:41;;;;;;;8.88;4.55;;;12.90;1.00;;;;;;7374501;19;20014;-69
2023/10/08 06:19:12;;;;;;;13.20;4.40;;;12.90;1.00;;;;;;7371727;19;20010;-69
2023/10/08 06:21:45;;;;;;;8.18;4.63;;;12.90;1.00;;;;;;7373716;19;20010;-69
2023/10/08 06:24:16;;;;;;;9.27;4.57;;;12.90;1.00;;;;;;7372652;19;20366;-69
2023/10/08 06:26:48;;;;;;;9.30;4.57;;;13.00;1.00;;;;;;7366251;19;20011;-69
2023/10/08 06:29:27;;;;;;;9.05;4.72;;;13.00;1.00;;;;;;7374860;19;20653;-69
2023/10/08 06:32:01;;;;;;;8.15;4.43;;;13.10;1.00;;;;;;7369509;19;20355;-69
2023/10/08 06:34:31;;;;;;;;;;;13.10;1.00;;;;;;7374632;19;20049;-69
2023/10/08 06:37:06;;;;;;;8.50;4.03;;;13.20;1.00;;;;;;7372346;19;19915;-70
2023/10/08 06:39:47;;;;;;;;;;;13.20;1.00;;;;;;7374165;19;20018;-69
2023/10/08 06:42:17;;;;;;;8.80;4.22;;;13.30;1.00;;;;;;7371794;19;19914;-70
2023/10/08 06:44:49;;;;;;;8.20;3.92;;;13.30;1.00;;;;;;7376902;19;20013;-69
2023/10/08 06:47:21;;;;;;;9.52;4.20;;;13.30;1.00;;;;;;7379730;19;20082;-69
2023/10/08 06:49:51;;;;;;;6.93;3.80;;;13.40;1.00;;;;;;7379511;19;20551;-69
2023/10/08 06:52:26;;;;;;;7.07;4.03;;;13.40;1.00;;;;;;7381587;19;20050;-69
2023/10/08 06:54:56;;;;;;;8.75;4.20;;;13.40;1.00;;;;;;7373241;19;20043;-69
2023/10/08 06:57:26;;;;;;;9.48;4.68;;;13.50;1.00;;;;;;7377716;19;20014;-69
2023/10/08 06:59:56;;;;;;;10.13;4.03;;;13.60;1.00;;;;;;7378781;19;20015;-69
2023/10/08 07:02:27;;;;;;;8.38;4.03;;;13.60;1.00;;;;;;7379311;19;20010;-70
2023/10/08 07:04:57;;;;;;;8.77;4.07;;;13.60;1.00;;;;;;7378829;19;20021;-70
2023/10/08 07:07:32;;;;;;;7.57;4.07;;;13.60;1.00;;;;;;7377546;19;20038;-70
2023/10/08 07:10:02;;;;;;;9.65;4.15;;;13.60;1.00;;;;;;7379470;19;20029;-70
2023/10/08 07:12:35;;;;;;;8.77;3.95;;;13.70;1.00;;;;;;7378835;19;20014;-69
2023/10/08 07:15:11;;;;;;;12.50;4.47;;;13.80;1.00;;;;;;7378366;19;20018;-70
2023/10/08 07:17:43;;;;;;;8.52;4.25;;;13.80;1.00;;;;;;7378396;19;20127;-69
2023/10/08 07:20:16;;;;;;;11.23;5.22;;;13.80;1.00;;;;;;7379029;19;20021;-69
2023/10/08 07:22:54;;;;;;;9.63;4.55;;;13.70;1.00;;;;;;7379868;19;20385;-70
2023/10/08 07:25:25;;;;;;;8.05;5.03;;;13.70;1.00;;;;;;7375105;19;20015;-70
2023/10/08 07:27:55;;;;;;;7.47;4.82;;;13.90;1.00;;;;;;7379598;19;20014;-70
2023/10/08 07:30:32;;;;;;;12.00;4.80;;;13.80;1.00;;;;;;7379039;19;20869;-70
2023/10/08 07:33:03;;;;;;;8.88;4.32;;;14.10;1.00;;;;;;7379294;19;20006;-70
2023/10/08 07:35:38;;;;;;;7.82;4.28;;;14.30;1.00;;;;;;7372805;19;20014;-69
2023/10/08 07:38:11;;;;;;;7.63;4.68;;;14.50;1.00;;;;;;7378485;19;20002;-70
2023/10/08 07:40:41;;;;;;;6.70;4.13;;;14.70;1.00;;;;;;7378755;19;20019;-69
2023/10/08 07:43:12;;;;;;;9.48;4.53;;;14.90;1.00;;;;;;7377944;19;20478;-70
2023/10/08 07:45:45;;;;;;;10.18;3.88;;;15.00;1.00;;;;;;7376773;19;20051;-70
2023/10/08 07:48:16;;;;;;;9.90;4.35;;;15.10;1.00;;;;;;7378809;19;20006;-70
2023/10/08 07:50:50;;;;;;;10.50;4.45;;;15.30;1.00;;;;;;7377957;19;20096;-70
2023/10/08 07:53:24;;;;;;;8.88;4.43;;;15.40;1.00;;;;;;7378836;19;22961;-70
2023/10/08 07:55:54;;;;;;;9.02;4.35;;;15.50;1.00;;;;;;7372918;19;20002;-69
2023/10/08 07:58:24;;;;;;;9.10;4.15;;;15.60;1.00;;;;;;7378367;19;20022;-68
2023/10/08 08:00:54;;;;;;;7.63;4.05;;;15.70;1.00;;;;;;7377434;19;20377;-69
2023/10/08 08:03:24;;;;;;;9.90;4.70;;;15.80;1.00;;;;;;7377397;19;20011;-69
2023/10/08 08:05:55;;;;;;;10.32;4.53;;;15.80;1.00;;;;;;7375062;19;20022;-69
2023/10/08 08:08:28;;;;;;;9.57;4.40;;;15.80;1.00;;;;;;7377613;19;20025;-69
2023/10/08 08:11:05;;;;;;;13.50;4.60;;;15.80;1.00;;;;;;7376623;19;20010;-69
2023/10/08 08:13:36;;;;;;;7.57;3.85;;;15.90;1.00;;;;;;7375417;19;20019;-69
2023/10/08 08:16:16;;;;;;;8.73;3.90;;;16.20;1.00;;;;;;7374983;19;20010;-69
2023/10/08 08:18:46;;;;;;;13.30;4.63;;;16.40;1.00;;;;;;7376882;19;20007;-69
2023/10/08 08:21:19;;;;;;;8.00;4.40;;;16.70;1.00;;;;;;7376614;19;20035;-70
2023/10/08 08:24:04;;;;;;;8.32;4.22;;;16.90;1.00;;;;;;7377309;19;20010;-69
2023/10/08 08:26:39;;;;;;;12.95;4.03;;;17.10;1.00;;;;;;6864070;19;2005280;-70
2023/10/08 08:29:15;;;;;;;7.88;3.83;;;17.30;1.00;;;;;;7377019;19;20471;-70
2023/10/08 08:31:46;;;;;;;8.88;4.40;;;17.30;1.00;;;;;;7377353;19;20006;-70
2023/10/08 08:34:19;;;;;;;9.27;4.40;;;17.40;1.00;;;;;;7377834;19;20002;-70
2023/10/08 08:36:49;;;;;;;10.27;4.00;;;17.50;1.00;;;;;;7376126;19;20020;-69
2023/10/08 08:39:32;;;;;;;8.38;3.92;;;17.70;1.00;;;;;;7378257;19;20011;-70
2023/10/08 08:42:04;;;;;;;12.88;4.22;;;17.90;1.00;;;;;;7374515;19;20013;-70
2023/10/08 08:44:39;;;;;;;11.35;4.90;;;18.00;1.00;;;;;;7376558;19;20007;-70
2023/10/08 08:47:12;;;;;;;7.20;4.30;;;18.00;1.00;;;;;;7375221;19;20027;-70
2023/10/08 08:49:45;;;;;;;10.52;4.78;;;18.10;1.00;;;;;;7376985;19;20022;-70
2023/10/08 08:52:16;;;;;;;8.27;4.63;;;18.40;1.00;;;;;;7376340;19;20036;-70
2023/10/08 08:54:49;;;;;;;7.88;4.20;;;18.80;1.00;;;;;;7375598;19;20494;-70
2023/10/08 08:57:20;;;;;;;10.68;3.95;;;19.00;1.00;;;;;;7375075;19;20100;-70
2023/10/08 08:59:56;;;;;;;8.65;3.80;;;19.20;1.00;;;;;;7378336;19;20014;-70
2023/10/08 09:02:27;;;;;;;13.00;3.85;;;19.30;1.00;;;;;;7373627;19;20010;-69
2023/10/08 09:04:57;;;;;;;7.63;3.25;;;19.50;1.00;;;;;;7373998;19;20013;-70
2023/10/08 09:07:28;;;;;;;5.45;3.05;;;19.20;1.00;;;;;;7374239;19;20013;-70
2023/10/08 09:10:07;;;;;;;7.05;2.90;;;19.30;1.00;;;;;;7376759;19;20089;-70
2023/10/08 09:12:37;;;;;;;5.68;3.08;;;19.60;1.00;;;;;;7374893;19;20085;-70
2023/10/08 09:15:09;;;;;;;5.82;2.92;;;19.90;1.00;;;;;;7374353;19;20034;-69
2023/10/08 09:17:41;;;;;;;7.88;3.08;;;20.20;1.00;;;;;;7374373;19;20027;-70
2023/10/08 09:20:12;;;;;;;10.48;3.30;;;20.30;1.00;;;;;;7375035;19;20039;-70
2023/10/08 09:22:42;;;;;;;6.72;3.28;;;20.40;1.00;;;;;;7373951;19;20027;-70
2023/10/08 09:25:14;;;;;;;7.50;3.38;;;20.70;1.00;;;;;;7373495;19;20396;-70
2023/10/08 09:27:46;;;;;;;6.82;3.05;;;20.70;1.00;;;;;;7374496;19;20022;-70
2023/10/08 09:30:19;;;;;;;4.05;2.75;;;20.40;1.00;;;;;;7375767;19;20011;-71
2023/10/08 09:32:50;;;;;;;9.13;2.90;;;20.20;1.00;;;;;;7375514;19;20018;-70
2023/10/08 09:35:27;;;;;;;6.32;3.22;;;20.20;1.00;;;;;;7369460;19;20074;-69
2023/10/08 09:37:57;;;;;;;4.53;2.67;;;20.50;1.00;;;;;;7374147;19;20010;-70
2023/10/08 09:40:30;;;;;;;7.13;3.08;;;20.60;1.00;;;;;;7374555;19;20039;-70
2023/10/08 09:43:03;;;;;;;5.57;2.60;;;20.80;1.00;;;;;;7374308;19;20003;-70
2023/10/08 09:45:34;;;;;;;5.67;3.37;;;21.00;1.00;;;;;;7383306;19;20010;-70
2023/10/08 09:48:09;;;;;;;7.47;4.32;;;21.10;1.00;;;;;;7390678;19;20251;-70
2023/10/08 09:50:44;;;;;;;7.35;3.88;;;20.80;1.00;;;;;;7374843;19;20018;-70
2023/10/08 09:53:19;;;;;;;9.02;3.33;;;20.90;1.00;;;;;;7373653;19;20052;-70
2023/10/08 09:55:56;;;;;;;5.93;3.03;;;20.80;1.00;;;;;;7372233;19;20029;-70
2023/10/08 09:58:29;;;;;;;4.95;3.00;;;20.90;1.00;;;;;;7373239;19;20089;-69
2023/10/08 10:01:00;;;;;;;8.38;4.78;;;21.10;1.00;;;;;;7375273;19;20017;-69
2023/10/08 10:03:30;;;;;;;6.32;3.17;;;21.00;1.00;;;;;;7372461;19;20094;-69
2023/10/08 10:06:02;;;;;;;6.85;3.13;;;20.90;1.00;;;;;;7369945;19;20007;-70
2023/10/08 10:08:35;;;;;;;8.02;3.08;;;21.10;1.00;;;;;;7372906;19;20743;-70
2023/10/08 10:11:08;;;;;;;;;;;21.30;1.00;;;;;;7375370;19;20021;-70
2023/10/08 10:13:44;;;;;;;7.45;3.63;;;21.40;1.00;;;;;;7374210;19;20696;-70
2023/10/08 10:16:15;;;;;;;6.78;2.85;;;21.30;1.00;;;;;;7372002;19;22426;-70
2023/10/08 10:18:48;;;;;;;9.18;3.38;;;21.50;1.00;;;;;;7373186;19;20036;-70
2023/10/08 10:21:30;;;;;;;5.35;3.03;;;21.60;1.00;;;;;;7373764;19;20042;-70
2023/10/08 10:24:01;;;;;;;6.75;3.10;;;21.40;1.00;;;;;;7372100;19;20014;-70
2023/10/08 10:26:34;;;;;;;6.88;2.97;;;21.30;1.00;;;;;;7371648;19;20416;-70
2023/10/08 10:29:20;;;;;;;6.13;3.28;;;21.50;1.00;;;;;;7373934;19;20007;-68
2023/10/08 10:31:53;;;;;;;5.38;3.35;;;21.50;1.00;;;;;;7374293;19;20118;-71
2023/10/08 10:34:26;;;;;;;6.57;2.75;;;21.40;1.00;;;;;;7373185;19;20011;-70
2023/10/08 10:36:59;;;;;;;4.93;2.97;;;21.70;1.00;;;;;;7370718;19;20019;-71
2023/10/08 10:39:31;;;;;;;6.07;3.25;;;21.50;1.00;;;;;;7372266;19;20288;-70
2023/10/08 10:42:06;;;;;;;5.03;3.20;;;21.70;1.00;;;;;;7371699;19;20011;-70
2023/10/08 10:44:38;;;;;;;4.70;3.13;;;21.60;1.00;;;;;;7373126;19;20448;-70
2023/10/08 10:50:10;;;;;;;4.68;2.55;;;21.80;1.00;;;;;;7374192;19;20021;-71
2023/10/08 10:52:44;;;;;;;7.13;3.00;;;21.60;1.00;;;;;;6863854;19;2005087;-71
2023/10/08 10:55:31;;;;;;;5.32;3.03;;;22.40;1.00;;;;;;7370662;19;20022;-71
2023/10/08 10:58:04;;;;;;;7.38;2.95;;;22.30;1.00;;;;;;7370452;19;20093;-71
2023/10/08 11:03:23;;;;;;;6.60;2.90;;;22.40;1.00;;;;;;7372937;19;20018;-70
2023/10/08 11:05:59;;;;;;;5.53;3.30;;;22.50;1.00;;;;;;7372485;19;20018;-71
2023/10/08 11:08:34;;;;;;;9.50;3.22;;;22.60;1.00;;;;;;7370461;19;20014;-70
2023/10/08 11:11:09;;;;;;;8.65;3.35;;;22.40;1.00;;;;;;7372200;19;20014;-71
2023/10/08 11:13:43;;;;;;;7.38;2.88;;;22.50;1.00;;;;;;7372418;19;20017;-71
2023/10/08 11:16:19;;;;;;;10.35;3.10;;;22.90;1.00;;;;;;7369902;19;20014;-71
2023/10/08 11:18:51;;;;;;;6.82;3.30;;;23.10;1.00;;;;;;7372845;19;20006;-70
2023/10/08 11:21:25;;;;;;;8.63;3.60;;;22.70;1.00;;;;;;7372470;19;20058;-70
2023/10/08 11:23:55;;;;;;;10.77;3.20;;;22.90;1.00;;;;;;7370345;19;20015;-69
2023/10/08 11:26:38;;;;;;;7.82;3.38;;;23.20;1.00;;;;;;7369376;19;20048;-70
2023/10/08 11:29:14;;;;;;;6.63;3.33;;;23.00;1.00;;;;;;7371212;19;20006;-71
2023/10/08 11:31:45;;;;;;;5.55;3.05;;;23.50;1.00;;;;;;7373810;19;20026;-70
2023/10/08 11:34:19;;;;;;;7.63;3.53;;;23.70;1.00;;;;;;7378752;19;20023;-70
2023/10/08 11:36:55;;;;;;;5.63;3.15;;;23.50;1.00;;;;;;7378175;19;20074;-70
2023/10/08 11:39:30;;;;;;;7.80;3.13;;;23.10;1.00;;;;;;7377592;19;20774;-71
2023/10/08 11:42:02;;;;;;;8.02;3.15;;;23.20;1.00;;;;;;7378778;19;20048;-70
2023/10/08 11:44:37;;;;;;;8.32;2.88;;;23.50;1.00;;;;;;7378431;19;20044;-70
2023/10/08 11:47:11;;;;;;;;;;;23.40;1.00;;;;;;7377828;19;20469;-71
2023/10/08 11:49:46;;;;;;;5.35;3.22;;;23.40;1.00;;;;;;7377835;19;20379;-72
2023/10/08 11:52:21;;;;;;;9.38;3.63;;;23.60;1.00;;;;;;7378689;19;20423;-71
2023/10/08 11:54:52;;;;;;;8.65;3.38;;;23.80;1.00;;;;;;7378135;19;20479;-71
2023/10/08 11:57:25;;;;;;;8.25;3.22;;;23.60;1.00;;;;;;7377776;19;20363;-71
2023/10/08 11:59:59;;;;;;;9.30;3.72;;;23.50;1.00;;;;;;7377409;19;20014;-70
2023/10/08 12:02:29;;;;;;;;;;;23.50;1.00;;;;;;7379130;19;20074;-70
2023/10/08 12:04:59;;;;;;;7.82;3.20;;;23.90;1.00;;;;;;7377943;19;19906;-70
2023/10/08 12:07:31;;;;;;;6.93;3.55;;;24.00;1.00;;;;;;7376636;19;20018;-70
2023/10/08 12:10:01;;;;;;;6.15;2.95;;;24.30;1.00;;;;;;7377859;19;20475;-70
2023/10/08 12:12:32;;;;;;;6.15;2.83;;;23.80;1.00;;;;;;7377834;19;20388;-70
2023/10/08 12:15:08;;;;;;;6.32;3.33;;;24.00;1.00;;;;;;7376668;19;20031;-71
2023/10/08 12:17:40;;;;;;;6.32;3.40;;;24.00;1.00;;;;;;7376688;19;20414;-70
2023/10/08 12:20:22;;;;;;;8.88;3.30;;;24.00;1.00;;;;;;7377673;19;20022;-70
2023/10/08 12:22:53;;;;;;;12.47;3.67;;;23.90;1.00;;;;;;7378664;19;20014;-71
2023/10/08 12:25:23;;;;;;;7.22;3.85;;;24.20;1.00;;;;;;7376281;19;20015;-70
2023/10/08 12:27:53;;;;;;;7.10;3.13;;;24.00;1.00;;;;;;7377622;19;20012;-71
2023/10/08 12:30:30;;;;;;;12.10;3.70;;;24.10;1.00;;;;;;7376776;19;20017;-71
2023/10/08 12:33:02;;;;;;;11.63;3.00;;;24.30;1.00;;;;;;7376342;19;20770;-69
2023/10/08 12:35:32;;;;;;;7.50;3.72;;;24.30;1.00;;;;;;7375324;19;20359;-70
2023/10/08 12:38:02;;;;;;;11.68;3.85;;;24.50;1.00;;;;;;7378300;19;20413;-71
2023/10/08 12:40:41;;;;;;;8.80;3.95;;;24.40;1.00;;;;;;7375926;19;20017;-71
2023/10/08 12:43:12;;;;;;;8.98;3.20;;;24.40;1.00;;;;;;7376920;19;20017;-70
2023/10/08 12:45:45;;;;;;;8.07;3.60;;;24.10;1.00;;;;;;7374751;19;20790;-70
2023/10/08 12:48:15;;;;;;;7.07;3.05;;;24.30;1.00;;;;;;7376856;19;20014;-70
2023/10/08 12:50:52;;;;;;;7.40;3.40;;;24.20;1.00;;;;;;7377226;19;20293;-70
2023/10/08 12:53:26;;;;;;;7.75;3.53;;;24.10;1.00;;;;;;7378201;19;20469;-70
2023/10/08 12:55:58;;;;;;;10.60;3.28;;;24.40;1.00;;;;;;7372716;19;20006;-71
2023/10/08 12:58:29;;;;;;;6.88;3.08;;;24.20;1.00;;;;;;7374926;19;20018;-70
2023/10/08 13:01:03;;;;;;;9.20;3.40;;;24.20;1.00;;;;;;7376934;19;20049;-71
2023/10/08 13:03:40;;;;;;;8.25;2.97;;;24.30;1.00;;;;;;7376327;19;20371;-70
2023/10/08 13:06:15;;;;;;;8.98;3.20;;;24.30;1.00;;;;;;7374045;19;20017;-70
2023/10/08 13:08:45;;;;;;;10.32;3.40;;;24.60;1.00;;;;;;7374155;19;20021;-70
2023/10/08 13:11:21;;;;;;;8.18;3.90;;;24.60;1.00;;;;;;7373567;19;20029;-70
2023/10/08 13:13:56;;;;;;;13.27;3.67;;;24.40;1.00;;;;;;7376951;19;20002;-70
2023/10/08 13:16:31;;;;;;;7.15;3.72;;;24.40;1.00;;;;;;7372563;19;20036;-71
2023/10/08 13:19:02;;;;;;;10.90;3.22;;;24.30;1.00;;;;;;7376606;19;20015;-71
2023/10/08 13:21:33;;;;;;;12.13;3.60;;;24.40;1.00;;;;;;7375631;19;20019;-71
2023/10/08 13:24:05;;;;;;;11.32;3.78;;;24.60;1.00;;;;;;7377086;19;20536;-71
2023/10/08 13:26:37;;;;;;;12.55;3.80;;;24.60;1.00;;;;;;7400056;19;20010;-72
2023/10/08 13:29:09;;;;;;;8.98;3.28;;;24.60;1.00;;;;;;7376926;19;20015;-71
2023/10/08 13:31:42;;;;;;;11.85;3.63;;;24.50;1.00;;;;;;7375744;19;20044;-71
2023/10/08 13:34:12;;;;;;;7.80;3.47;;;24.60;1.00;;;;;;7375845;19;20010;-70
2023/10/08 13:36:43;;;;;;;14.05;4.13;;;24.40;1.00;;;;;;7371137;19;20025;-70
2023/10/08 13:39:18;;;;;;;8.60;3.47;;;24.30;1.00;;;;;;7374478;19;20014;-71
2023/10/08 13:41:52;;;;;;;10.57;3.60;;;24.30;1.00;;;;;;7375338;19;20487;-71
2023/10/08 13:44:28;;;;;;;8.10;3.45;;;24.20;1.00;;;;;;7375356;19;20086;-69
2023/10/08 13:47:05;;;;;;;6.70;3.33;;;24.30;1.00;;;;;;7372962;19;20017;-70
2023/10/08 13:49:35;;;;;;;10.50;3.50;;;24.40;1.00;;;;;;7375233;19;20062;-71